createdAt,value
2023-03-28T11:27:15.497Z,1017.61
2023-03-28T11:28:07.559Z,1017.62
2023-03-28T11:29:07.529Z,1017.64
2023-03-28T11:30:07.489Z,1017.64
2023-03-28T11:31:07.538Z,1017.61
2023-03-28T11:32:07.470Z,1017.47
2023-03-28T11:33:07.516Z,1017.53
2023-03-28T11:34:07.414Z,1017.46
2023-03-28T11:35:07.423Z,1017.46
2023-03-28T11:36:07.503Z,1017.38
2023-03-28T11:37:07.365Z,1017.38
2023-03-28T11:38:07.338Z,1017.39
2023-03-28T11:39:07.362Z,1017.36
2023-03-28T11:40:08.959Z,1017.35
2023-03-28T11:41:07.311Z,1017.34
2023-03-28T11:42:07.272Z,1017.36
2023-03-28T11:43:07.288Z,1017.34
2023-03-28T11:44:07.238Z,1017.36
2023-03-28T11:45:07.238Z,1017.37
2023-03-28T11:46:07.290Z,1017.31
2023-03-28T11:47:07.198Z,1017.31
2023-03-28T11:48:07.247Z,1017.26
2023-03-28T11:49:07.163Z,1017.33
2023-03-28T11:50:07.145Z,1017.29
2023-03-28T11:51:07.139Z,1017.26
2023-03-28T11:52:07.093Z,1017.30
2023-03-28T11:53:07.114Z,1017.22
2023-03-28T11:54:07.080Z,1017.21
2023-03-28T11:55:07.054Z,1017.20
2023-03-28T11:56:07.053Z,1017.21
2023-03-28T11:57:07.087Z,1017.15
2023-03-28T11:58:07.027Z,1017.11
2023-03-28T11:59:07.014Z,1017.11
2023-03-28T12:00:06.970Z,1017.06
2023-03-28T12:01:07.003Z,1017.04
2023-03-28T12:02:06.965Z,1017.05
2023-03-28T12:03:07.008Z,1017.04
2023-03-28T12:04:07.010Z,1016.96
2023-03-28T12:05:06.874Z,1016.96
2023-03-28T12:06:08.997Z,1016.94
2023-03-28T12:07:06.867Z,1016.93
2023-03-28T12:08:06.848Z,1016.89
2023-03-28T12:09:06.867Z,1016.89
2023-03-28T12:10:06.792Z,1016.87
2023-03-28T12:11:06.805Z,1016.88
2023-03-28T12:12:06.753Z,1016.85
2023-03-28T12:13:06.753Z,1016.81
2023-03-28T12:14:12.238Z,1016.81
2023-03-28T12:15:06.724Z,1016.78
2023-03-28T12:16:06.694Z,1016.77
2023-03-28T12:17:06.692Z,1016.77
2023-03-28T12:18:06.723Z,1016.77
2023-03-28T12:19:06.658Z,1016.72
2023-03-28T12:20:06.640Z,1016.71
2023-03-28T12:21:06.640Z,1016.73
2023-03-28T12:22:06.579Z,1016.71
2023-03-28T12:23:06.589Z,1016.71
2023-03-28T12:24:06.547Z,1016.68
2023-03-28T12:25:06.554Z,1016.60
2023-03-28T12:26:06.531Z,1016.64
2023-03-28T12:27:06.536Z,1016.67
2023-03-28T12:28:06.483Z,1016.64
2023-03-28T12:29:06.470Z,1016.69
2023-03-28T12:30:06.445Z,1016.66
2023-03-28T12:31:06.487Z,1016.60
2023-03-28T12:32:06.444Z,1016.61
2023-03-28T12:33:06.452Z,1016.59
2023-03-28T12:34:06.395Z,1016.58
2023-03-28T12:35:06.370Z,1016.59
2023-03-28T12:36:06.404Z,1016.58
2023-03-28T12:37:06.373Z,1016.52
2023-03-28T12:38:06.344Z,1016.49
2023-03-28T12:39:06.309Z,1016.48
2023-03-28T12:40:06.308Z,1016.52
2023-03-28T12:41:06.274Z,1016.54
2023-03-28T12:42:06.284Z,1016.51
2023-03-28T12:43:06.244Z,1016.43
2023-03-28T12:44:06.224Z,1016.43
2023-03-28T12:45:06.212Z,1016.43
2023-03-28T12:46:06.271Z,1016.43
2023-03-28T12:47:06.192Z,1016.39
2023-03-28T12:48:06.210Z,1016.39
2023-03-28T12:49:06.165Z,1016.38
2023-03-28T12:50:06.149Z,1016.39
2023-03-28T12:51:06.121Z,1016.32
2023-03-28T12:52:06.134Z,1016.36
2023-03-28T12:53:06.114Z,1016.35
2023-03-28T12:54:06.068Z,1016.30
2023-03-28T12:55:06.061Z,1016.30
2023-03-28T12:56:06.060Z,1016.25
2023-03-28T12:57:06.062Z,1016.22
2023-03-28T12:58:06.030Z,1016.20
2023-03-28T12:59:06.022Z,1016.15
2023-03-28T13:00:06.006Z,1016.19
2023-03-28T13:01:06.037Z,1016.18
2023-03-28T13:02:05.970Z,1016.18
2023-03-28T13:03:06.040Z,1016.17
2023-03-28T13:04:05.975Z,1016.12
2023-03-28T13:05:05.919Z,1016.13
2023-03-28T13:06:05.915Z,1015.98
2023-03-28T13:07:05.908Z,1016.07
2023-03-28T13:08:05.899Z,1016.11
2023-03-28T13:09:05.859Z,1016.08
2023-03-28T13:10:05.861Z,1016.02
2023-03-28T13:11:05.851Z,1015.92
2023-03-28T13:12:05.812Z,1015.97
2023-03-28T13:13:05.840Z,1015.98
2023-03-28T13:14:05.785Z,1015.97
2023-03-28T13:15:05.801Z,1015.97
2023-03-28T13:16:05.838Z,1015.93
2023-03-28T13:17:05.755Z,1015.94
2023-03-28T13:18:05.758Z,1015.84
2023-03-28T13:19:05.748Z,1015.88
2023-03-28T13:20:05.712Z,1015.81
2023-03-28T13:21:05.722Z,1015.77
2023-03-28T13:22:05.700Z,1015.74
2023-03-28T13:23:05.681Z,1015.71
2023-03-28T13:24:05.667Z,1015.75
2023-03-28T13:25:05.648Z,1015.74
2023-03-28T13:26:05.643Z,1015.79
2023-03-28T13:27:05.640Z,1015.71
2023-03-28T13:28:05.601Z,1015.78
2023-03-28T13:29:05.624Z,1015.74
2023-03-28T13:30:05.598Z,1015.75
2023-03-28T13:31:05.639Z,1015.70
2023-03-28T13:32:05.572Z,1015.69
2023-03-28T13:33:05.577Z,1015.65
2023-03-28T13:34:05.533Z,1015.63
2023-03-28T13:35:05.579Z,1015.69
2023-03-28T13:36:05.943Z,1015.66
2023-03-28T13:37:05.488Z,1015.68
2023-03-28T13:38:05.466Z,1015.72
2023-03-28T13:39:05.468Z,1015.71
2023-03-28T13:40:05.441Z,1015.63
2023-03-28T13:41:05.448Z,1015.64
2023-03-28T13:42:05.407Z,1015.60
2023-03-28T13:43:05.422Z,1015.59
2023-03-28T13:44:05.377Z,1015.57
2023-03-28T13:45:05.382Z,1015.56
2023-03-28T13:46:05.354Z,1015.50
2023-03-28T13:47:05.387Z,1015.52
2023-03-28T13:48:13.225Z,1015.51
2023-03-28T13:49:05.336Z,1015.51
2023-03-28T13:50:05.306Z,1015.54
2023-03-28T13:51:05.285Z,1015.48
2023-03-28T13:52:05.283Z,1015.47
2023-03-28T13:53:05.261Z,1015.50
2023-03-28T13:54:05.236Z,1015.43
2023-03-28T13:55:05.241Z,1015.44
2023-03-28T13:56:05.225Z,1015.39
2023-03-28T13:57:05.249Z,1015.41
2023-03-28T13:58:05.193Z,1015.38
2023-03-28T13:59:05.167Z,1015.33
2023-03-28T14:00:05.189Z,1015.36
2023-03-28T14:01:05.175Z,1015.25
2023-03-28T14:02:05.178Z,1015.24
2023-03-28T14:03:05.159Z,1015.17
2023-03-28T14:04:05.099Z,1015.16
2023-03-28T14:05:05.105Z,1015.21
2023-03-28T14:06:05.088Z,1015.20
2023-03-28T14:07:05.666Z,1015.26
2023-03-28T14:08:05.038Z,1015.19
2023-03-28T14:09:05.028Z,1015.16
2023-03-28T14:10:05.067Z,1015.23
2023-03-28T14:11:04.992Z,1015.10
2023-03-28T14:12:05.007Z,1015.11
2023-03-28T14:13:04.982Z,1015.14
2023-03-28T14:14:06.656Z,1015.22
2023-03-28T14:15:04.951Z,1015.18
2023-03-28T14:16:05.013Z,1015.08
2023-03-28T14:17:04.911Z,1015.02
2023-03-28T14:18:05.010Z,1015.07
2023-03-28T14:19:04.944Z,1015.14
2023-03-28T14:20:05.010Z,1015.08
2023-03-28T14:21:04.859Z,1015.05
2023-03-28T14:22:04.862Z,1014.99
2023-03-28T14:23:04.836Z,1015.01
2023-03-28T14:24:04.831Z,1015.04
2023-03-28T14:25:04.852Z,1015.07
2023-03-28T14:26:04.842Z,1015.16
2023-03-28T14:27:04.789Z,1015.13
2023-03-28T14:28:04.789Z,1015.13
2023-03-28T14:29:04.786Z,1015.05
2023-03-28T14:30:04.761Z,1015.02
2023-03-28T14:31:04.757Z,1014.97
2023-03-28T14:32:04.774Z,1014.92
2023-03-28T14:33:04.761Z,1014.90
2023-03-28T14:34:04.745Z,1014.83
2023-03-28T14:35:04.727Z,1014.80
2023-03-28T14:36:04.728Z,1014.84
2023-03-28T14:37:04.681Z,1014.88
2023-03-28T14:38:04.706Z,1014.80
2023-03-28T14:39:04.757Z,1014.80
2023-03-28T14:40:04.677Z,1014.77
2023-03-28T14:41:04.647Z,1014.71
2023-03-28T14:42:04.660Z,1014.67
2023-03-28T14:43:04.634Z,1014.70
2023-03-28T14:44:04.605Z,1014.68
2023-03-28T14:45:04.607Z,1014.63
2023-03-28T14:46:04.641Z,1014.62
2023-03-28T14:47:04.585Z,1014.59
2023-03-28T14:48:04.584Z,1014.54
2023-03-28T14:49:04.542Z,1014.52
2023-03-28T14:50:04.547Z,1014.52
2023-03-28T14:51:04.557Z,1014.50
2023-03-28T14:52:04.540Z,1014.43
2023-03-28T14:53:04.525Z,1014.45
2023-03-28T14:54:04.529Z,1014.42
2023-03-28T14:55:04.495Z,1014.37
2023-03-28T14:56:06.419Z,1014.40
2023-03-28T14:57:04.505Z,1014.35
2023-03-28T14:58:04.461Z,1014.38
2023-03-28T14:59:04.456Z,1014.35
2023-03-28T15:00:04.468Z,1014.29
2023-03-28T15:01:04.554Z,1014.30
2023-03-28T15:02:04.542Z,1014.29
2023-03-28T15:03:04.449Z,1014.31
2023-03-28T15:04:04.399Z,1014.24
2023-03-28T15:05:04.384Z,1014.18
2023-03-28T15:06:04.384Z,1014.17
2023-03-28T15:07:04.608Z,1014.16
2023-03-28T15:08:16.255Z,1014.11
2023-03-28T15:09:16.242Z,1014.12
2023-03-28T15:10:16.261Z,1014.10
2023-03-28T15:11:16.234Z,1014.09
2023-03-28T15:12:16.207Z,1014.11
2023-03-28T15:13:17.391Z,1014.10
2023-03-28T15:14:16.173Z,1014.08
2023-03-28T15:15:16.189Z,1014.09
2023-03-28T15:16:16.218Z,1014.07
2023-03-28T15:17:16.141Z,1014.05
2023-03-28T15:18:16.134Z,1013.98
